createdAt,value
2022-09-15T00:00:50.350Z,15.35
2022-09-15T00:10:50.380Z,15.69
2022-09-15T00:20:50.702Z,15.35
2022-09-15T00:30:50.768Z,15.35
2022-09-15T00:40:50.973Z,15.52
2022-09-15T00:50:51.000Z,15.86
2022-09-15T01:00:51.337Z,16.03
2022-09-15T01:10:51.362Z,16.19
2022-09-15T01:20:51.638Z,16.19
2022-09-15T01:30:51.818Z,16.52
2022-09-15T01:40:51.898Z,16.36
2022-09-15T01:50:51.917Z,16.19
2022-09-15T02:00:52.292Z,16.03
2022-09-15T02:10:52.316Z,15.86
2022-09-15T02:20:52.606Z,16.19
2022-09-15T02:30:52.626Z,16.19
2022-09-15T02:40:53.057Z,16.03
2022-09-15T02:50:53.146Z,16.19
2022-09-15T03:00:53.343Z,16.36
2022-09-15T03:10:53.376Z,16.52
2022-09-15T03:20:53.669Z,16.52
2022-09-15T03:30:53.704Z,15.36
2022-09-15T03:40:54.005Z,15.36
2022-09-15T03:50:54.032Z,15.52
2022-09-15T04:00:54.469Z,15.52
2022-09-15T04:10:54.484Z,15.52
2022-09-15T04:20:54.813Z,15.52
2022-09-15T04:30:54.843Z,15.68
2022-09-15T04:40:55.179Z,15.52
2022-09-15T04:50:55.202Z,15.52
2022-09-15T05:00:55.708Z,15.68
2022-09-15T05:10:55.576Z,15.52
2022-09-15T05:20:55.952Z,14.70
2022-09-15T05:30:56.040Z,15.86
2022-09-15T05:40:56.210Z,15.03
2022-09-15T05:50:56.229Z,16.03
2022-09-15T06:00:56.572Z,15.86
2022-09-15T06:10:56.601Z,15.69
2022-09-15T06:20:56.912Z,16.03
2022-09-15T06:30:56.921Z,16.19
2022-09-15T06:40:57.258Z,16.19
2022-09-15T06:50:57.265Z,16.03
2022-09-15T07:00:57.608Z,16.68
2022-09-15T07:10:57.639Z,16.51
2022-09-15T07:20:57.962Z,16.16
2022-09-15T07:30:57.981Z,16.33
2022-09-15T07:40:58.198Z,16.51
2022-09-15T07:50:58.420Z,16.33
2022-09-15T08:00:58.816Z,16.51
2022-09-15T08:10:58.856Z,16.85
2022-09-15T08:20:59.220Z,16.85
2022-09-15T08:30:59.308Z,16.68
2022-09-15T08:40:59.471Z,17.02
2022-09-15T08:50:59.488Z,17.19
2022-09-15T09:00:59.798Z,16.68
2022-09-15T09:10:59.842Z,16.85
2022-09-15T09:21:00.153Z,16.51
2022-09-15T09:31:00.252Z,17.50
2022-09-15T09:41:02.500Z,17.84
2022-09-15T09:51:00.453Z,17.67
2022-09-15T10:01:00.764Z,17.67
2022-09-15T10:11:00.790Z,17.14
2022-09-15T10:21:01.340Z,16.42
2022-09-15T10:31:01.169Z,16.79
2022-09-15T10:41:02.490Z,16.60
2022-09-15T10:51:01.512Z,16.60
2022-09-15T11:01:01.876Z,15.86
2022-09-15T11:11:01.974Z,16.05
2022-09-15T11:21:02.252Z,17.02
2022-09-15T11:31:02.311Z,16.05
2022-09-15T11:41:02.496Z,17.02
2022-09-15T11:51:02.523Z,16.44
2022-09-15T12:01:02.850Z,16.44
2022-09-15T12:11:02.878Z,17.02
2022-09-15T12:21:03.201Z,17.21
2022-09-15T12:31:03.284Z,17.02
2022-09-15T12:41:03.349Z,17.21
2022-09-15T12:51:03.375Z,15.07
2022-09-15T13:01:17.467Z,16.24
2022-09-15T13:11:04.827Z,16.64
2022-09-15T13:21:03.844Z,16.44
2022-09-15T13:31:04.206Z,16.04
2022-09-15T13:41:04.256Z,16.04
2022-09-15T13:51:04.564Z,15.01
2022-09-15T14:01:04.640Z,16.04
2022-09-15T14:11:04.815Z,16.04
2022-09-15T14:21:04.841Z,16.04
2022-09-15T14:31:05.161Z,16.83
2022-09-15T14:41:05.208Z,16.83
2022-09-15T14:51:05.507Z,16.44
2022-09-15T15:01:05.562Z,16.19
2022-09-15T15:11:05.870Z,16.19
2022-09-15T15:21:05.899Z,16.24
2022-09-15T15:31:06.222Z,15.22
2022-09-15T15:41:06.270Z,15.43
2022-09-15T15:51:06.614Z,15.84
2022-09-15T16:01:06.661Z,15.64
2022-09-15T16:11:06.924Z,14.47
2022-09-15T16:21:07.140Z,15.27
2022-09-15T16:31:07.547Z,15.62
2022-09-15T16:41:07.562Z,15.17
2022-09-15T16:51:28.678Z,15.52
2022-09-15T17:01:08.976Z,15.86
2022-09-15T17:11:08.250Z,16.03
2022-09-15T17:21:08.460Z,15.20
2022-09-15T17:31:08.785Z,15.36
2022-09-15T17:41:08.697Z,16.19
2022-09-15T17:51:08.945Z,15.20
2022-09-15T18:01:09.551Z,15.36
2022-09-15T18:11:09.371Z,16.36
2022-09-15T18:21:09.681Z,16.19
2022-09-15T18:31:09.791Z,15.36
2022-09-15T18:41:09.900Z,15.36
2022-09-15T18:51:09.917Z,15.52
2022-09-15T19:01:10.213Z,15.52
2022-09-15T19:11:10.348Z,15.68
2022-09-15T19:21:10.520Z,15.68
2022-09-15T19:31:10.668Z,15.68
2022-09-15T19:41:10.806Z,15.52
2022-09-15T19:51:10.763Z,15.52
2022-09-15T20:01:10.886Z,15.52
2022-09-15T20:11:10.906Z,15.68
2022-09-15T20:21:21.767Z,15.68
2022-09-15T20:31:12.482Z,15.68
2022-09-15T20:41:11.505Z,15.68
2022-09-15T20:51:11.814Z,15.84
2022-09-15T21:01:11.882Z,15.84
2022-09-15T21:11:12.061Z,15.84
2022-09-15T21:21:12.083Z,15.84
2022-09-15T21:31:12.422Z,15.84
2022-09-15T21:41:12.456Z,15.84
2022-09-15T21:51:12.759Z,15.84
2022-09-15T22:01:12.939Z,15.84
2022-09-15T22:11:13.110Z,15.84
2022-09-15T22:21:13.132Z,15.84
2022-09-15T22:31:13.475Z,15.84
2022-09-15T22:41:13.544Z,15.84
2022-09-15T22:51:13.805Z,15.84
2022-09-15T23:01:14.073Z,15.84
2022-09-15T23:11:14.151Z,15.84
2022-09-15T23:21:14.380Z,15.84
2022-09-15T23:31:14.818Z,14.69
2022-09-15T23:41:14.850Z,14.84
2022-09-15T23:51:15.231Z,14.69
